sensor_id;sensor_type;location;lat;lon;timestamp;pressure;altitude;pressure_sealevel;temperature;humidity
52032;BME280;38044;45.148;39.604;2023-06-14T00:02:08;100298.81;;;18.21;98.40
52032;BME280;38044;45.148;39.604;2023-06-14T00:04:35;100298.81;;;18.21;98.09
52032;BME280;38044;45.148;39.604;2023-06-14T00:07:02;100302.56;;;18.17;97.94
52032;BME280;38044;45.148;39.604;2023-06-14T00:09:27;100302.16;;;18.15;98.15
52032;BME280;38044;45.148;39.604;2023-06-14T00:11:53;100309.38;;;18.23;98.26
52032;BME280;38044;45.148;39.604;2023-06-14T00:14:19;100310.56;;;18.26;98.31
52032;BME280;38044;45.148;39.604;2023-06-14T00:16:45;100306.97;;;18.21;97.95
52032;BME280;38044;45.148;39.604;2023-06-14T00:19:11;100308.41;;;18.31;98.15
52032;BME280;38044;45.148;39.604;2023-06-14T00:21:38;100312.81;;;18.36;97.64
52032;BME280;38044;45.148;39.604;2023-06-14T00:24:04;100306.91;;;18.34;97.47
52032;BME280;38044;45.148;39.604;2023-06-14T00:26:30;100294.47;;;18.33;97.23
52032;BME280;38044;45.148;39.604;2023-06-14T00:28:56;100303.25;;;18.42;96.71
52032;BME280;38044;45.148;39.604;2023-06-14T00:31:25;100294.53;;;18.36;97.01
52032;BME280;38044;45.148;39.604;2023-06-14T00:33:51;100301.66;;;18.41;96.97
52032;BME280;38044;45.148;39.604;2023-06-14T00:36:17;100300.19;;;18.43;96.81
52032;BME280;38044;45.148;39.604;2023-06-14T00:38:43;100300.25;;;18.47;97.15
52032;BME280;38044;45.148;39.604;2023-06-14T00:41:09;100302.13;;;18.43;96.98
52032;BME280;38044;45.148;39.604;2023-06-14T00:43:35;100293.41;;;18.37;96.99
52032;BME280;38044;45.148;39.604;2023-06-14T00:46:01;100305.16;;;18.41;96.95
52032;BME280;38044;45.148;39.604;2023-06-14T00:48:27;100293.94;;;18.43;97.05
52032;BME280;38044;45.148;39.604;2023-06-14T00:50:54;100303.69;;;18.44;96.77
52032;BME280;38044;45.148;39.604;2023-06-14T00:53:20;100315.81;;;18.46;96.75
52032;BME280;38044;45.148;39.604;2023-06-14T00:55:48;100313.41;;;18.45;96.66
52032;BME280;38044;45.148;39.604;2023-06-14T00:58:15;100314.22;;;18.45;97.00
52032;BME280;38044;45.148;39.604;2023-06-14T01:00:41;100320.47;;;18.46;96.72
52032;BME280;38044;45.148;39.604;2023-06-14T01:03:07;100329.75;;;18.45;96.66
52032;BME280;38044;45.148;39.604;2023-06-14T01:05:38;100320.72;;;18.41;96.39
52032;BME280;38044;45.148;39.604;2023-06-14T01:08:24;100321.75;;;18.36;96.90
52032;BME280;38044;45.148;39.604;2023-06-14T01:11:02;100321.66;;;18.33;96.77
52032;BME280;38044;45.148;39.604;2023-06-14T01:13:34;100320.34;;;18.27;97.08
52032;BME280;38044;45.148;39.604;2023-06-14T01:16:02;100339.38;;;18.27;97.41
52032;BME280;38044;45.148;39.604;2023-06-14T01:18:29;100328.94;;;18.29;97.59
52032;BME280;38044;45.148;39.604;2023-06-14T01:20:55;100331.69;;;18.29;97.13
52032;BME280;38044;45.148;39.604;2023-06-14T01:23:22;100339.72;;;18.25;97.46
52032;BME280;38044;45.148;39.604;2023-06-14T01:25:49;100329.25;;;18.11;97.77
52032;BME280;38044;45.148;39.604;2023-06-14T01:28:20;100306.59;;;18.07;97.81
52032;BME280;38044;45.148;39.604;2023-06-14T01:30:52;100322.91;;;18.07;98.43
52032;BME280;38044;45.148;39.604;2023-06-14T01:33:21;100322.69;;;18.12;98.35
52032;BME280;38044;45.148;39.604;2023-06-14T01:35:50;100328.41;;;18.23;97.95
52032;BME280;38044;45.148;39.604;2023-06-14T01:38:21;100325.94;;;18.18;98.07
52032;BME280;38044;45.148;39.604;2023-06-14T01:40:48;100335.44;;;18.24;98.20
52032;BME280;38044;45.148;39.604;2023-06-14T01:43:16;100341.88;;;18.32;97.87
52032;BME280;38044;45.148;39.604;2023-06-14T01:45:45;100330.97;;;18.32;97.94
52032;BME280;38044;45.148;39.604;2023-06-14T01:48:12;100322.53;;;18.37;97.39
52032;BME280;38044;45.148;39.604;2023-06-14T01:50:39;100334.50;;;18.48;96.31
52032;BME280;38044;45.148;39.604;2023-06-14T01:53:08;100337.22;;;18.48;96.68
52032;BME280;38044;45.148;39.604;2023-06-14T01:55:35;100343.09;;;18.50;96.27
52032;BME280;38044;45.148;39.604;2023-06-14T01:58:05;100346.00;;;18.41;96.18
52032;BME280;38044;45.148;39.604;2023-06-14T02:00:31;100328.25;;;18.32;96.63
52032;BME280;38044;45.148;39.604;2023-06-14T02:02:57;100352.03;;;18.35;96.81
52032;BME280;38044;45.148;39.604;2023-06-14T02:05:23;100352.03;;;18.35;96.94
52032;BME280;38044;45.148;39.604;2023-06-14T02:07:49;100348.09;;;18.32;97.28
52032;BME280;38044;45.148;39.604;2023-06-14T02:10:16;100337.78;;;18.26;97.81
52032;BME280;38044;45.148;39.604;2023-06-14T02:12:43;100342.91;;;18.27;97.73
52032;BME280;38044;45.148;39.604;2023-06-14T02:15:09;100335.88;;;18.26;97.52
52032;BME280;38044;45.148;39.604;2023-06-14T02:17:42;100337.53;;;18.31;97.55
52032;BME280;38044;45.148;39.604;2023-06-14T02:20:09;100336.31;;;18.28;97.62
52032;BME280;38044;45.148;39.604;2023-06-14T02:22:35;100320.97;;;18.36;97.47
52032;BME280;38044;45.148;39.604;2023-06-14T02:25:01;100323.34;;;18.37;97.67
52032;BME280;38044;45.148;39.604;2023-06-14T02:27:26;100328.47;;;18.55;96.48
52032;BME280;38044;45.148;39.604;2023-06-14T02:29:52;100326.78;;;18.50;95.83
52032;BME280;38044;45.148;39.604;2023-06-14T02:32:18;100308.75;;;18.45;96.08
52032;BME280;38044;45.148;39.604;2023-06-14T02:34:44;100325.19;;;18.49;97.01
52032;BME280;38044;45.148;39.604;2023-06-14T02:37:10;100317.66;;;18.58;96.91
52032;BME280;38044;45.148;39.604;2023-06-14T02:39:36;100303.78;;;18.63;96.41
52032;BME280;38044;45.148;39.604;2023-06-14T02:42:02;100325.72;;;18.71;95.61
52032;BME280;38044;45.148;39.604;2023-06-14T02:44:29;100331.44;;;18.65;95.73
52032;BME280;38044;45.148;39.604;2023-06-14T02:46:55;100334.25;;;18.53;96.35
52032;BME280;38044;45.148;39.604;2023-06-14T02:49:23;100331.16;;;18.39;96.76
52032;BME280;38044;45.148;39.604;2023-06-14T02:51:49;100326.78;;;18.34;97.44
52032;BME280;38044;45.148;39.604;2023-06-14T02:54:15;100317.38;;;18.32;97.57
52032;BME280;38044;45.148;39.604;2023-06-14T02:56:41;100326.41;;;18.36;97.55
52032;BME280;38044;45.148;39.604;2023-06-14T02:59:07;100325.00;;;18.42;97.37
52032;BME280;38044;45.148;39.604;2023-06-14T03:01:34;100307.28;;;18.48;97.21
52032;BME280;38044;45.148;39.604;2023-06-14T03:04:01;100307.47;;;18.55;96.50
52032;BME280;38044;45.148;39.604;2023-06-14T03:06:31;100302.03;;;18.55;96.62
52032;BME280;38044;45.148;39.604;2023-06-14T03:08:58;100287.19;;;18.53;96.17
52032;BME280;38044;45.148;39.604;2023-06-14T03:11:30;100273.50;;;18.49;96.77
52032;BME280;38044;45.148;39.604;2023-06-14T03:13:56;100272.53;;;18.57;96.36
52032;BME280;38044;45.148;39.604;2023-06-14T03:16:22;100275.66;;;18.59;96.68
52032;BME280;38044;45.148;39.604;2023-06-14T03:18:52;100277.66;;;18.75;95.84
52032;BME280;38044;45.148;39.604;2023-06-14T03:21:20;100298.00;;;18.81;95.15
52032;BME280;38044;45.148;39.604;2023-06-14T03:23:47;100280.53;;;18.82;94.80
52032;BME280;38044;45.148;39.604;2023-06-14T03:26:14;100297.91;;;18.93;94.58
52032;BME280;38044;45.148;39.604;2023-06-14T03:28:44;100290.53;;;18.94;94.18
52032;BME280;38044;45.148;39.604;2023-06-14T03:31:11;100288.69;;;18.98;94.06
52032;BME280;38044;45.148;39.604;2023-06-14T03:33:38;100307.38;;;18.99;94.38
52032;BME280;38044;45.148;39.604;2023-06-14T03:36:04;100312.63;;;19.08;94.73
52032;BME280;38044;45.148;39.604;2023-06-14T03:38:30;100319.69;;;19.09;94.58
52032;BME280;38044;45.148;39.604;2023-06-14T03:40:56;100310.28;;;19.06;94.64
52032;BME280;38044;45.148;39.604;2023-06-14T03:43:22;100321.19;;;19.06;94.97
52032;BME280;38044;45.148;39.604;2023-06-14T03:45:48;100332.22;;;19.13;94.84
52032;BME280;38044;45.148;39.604;2023-06-14T03:48:14;100334.25;;;19.17;94.58
52032;BME280;38044;45.148;39.604;2023-06-14T03:50:40;100332.56;;;19.28;94.51
52032;BME280;38044;45.148;39.604;2023-06-14T03:53:08;100330.72;;;19.32;93.45
52032;BME280;38044;45.148;39.604;2023-06-14T03:55:34;100339.09;;;19.43;93.46
52032;BME280;38044;45.148;39.604;2023-06-14T03:58:00;100326.81;;;19.49;92.70
52032;BME280;38044;45.148;39.604;2023-06-14T04:00:26;100328.16;;;19.58;91.79
52032;BME280;38044;45.148;39.604;2023-06-14T04:02:52;100323.47;;;19.75;91.86
52032;BME280;38044;45.148;39.604;2023-06-14T04:05:19;100334.69;;;19.89;90.79
52032;BME280;38044;45.148;39.604;2023-06-14T04:07:46;100331.34;;;19.99;91.14
52032;BME280;38044;45.148;39.604;2023-06-14T04:10:14;100332.72;;;20.09;89.97
52032;BME280;38044;45.148;39.604;2023-06-14T04:12:41;100344.50;;;20.13;89.71
52032;BME280;38044;45.148;39.604;2023-06-14T04:15:07;100341.59;;;20.25;88.77
52032;BME280;38044;45.148;39.604;2023-06-14T04:17:34;100335.41;;;20.29;88.76
52032;BME280;38044;45.148;39.604;2023-06-14T04:20:01;100343.94;;;20.46;87.73
52032;BME280;38044;45.148;39.604;2023-06-14T04:22:29;100368.03;;;20.60;87.57
52032;BME280;38044;45.148;39.604;2023-06-14T04:24:56;100365.59;;;20.78;87.43
52032;BME280;38044;45.148;39.604;2023-06-14T04:27:26;100359.19;;;20.93;86.80
52032;BME280;38044;45.148;39.604;2023-06-14T04:29:53;100369.53;;;21.04;86.32
52032;BME280;38044;45.148;39.604;2023-06-14T04:32:25;100372.34;;;21.11;86.16
52032;BME280;38044;45.148;39.604;2023-06-14T04:34:57;100377.25;;;21.25;84.89
52032;BME280;38044;45.148;39.604;2023-06-14T04:37:25;100379.13;;;21.44;84.90
52032;BME280;38044;45.148;39.604;2023-06-14T04:39:54;100386.88;;;21.68;83.95
52032;BME280;38044;45.148;39.604;2023-06-14T04:42:22;100384.38;;;21.86;83.23
52032;BME280;38044;45.148;39.604;2023-06-14T04:44:51;100384.88;;;22.25;81.44
52032;BME280;38044;45.148;39.604;2023-06-14T04:47:21;100378.41;;;22.41;80.35
52032;BME280;38044;45.148;39.604;2023-06-14T04:49:47;100386.16;;;22.73;79.62
52032;BME280;38044;45.148;39.604;2023-06-14T04:52:13;100389.78;;;22.84;78.48
52032;BME280;38044;45.148;39.604;2023-06-14T04:54:40;100383.06;;;23.26;77.30
52032;BME280;38044;45.148;39.604;2023-06-14T04:57:09;100394.16;;;24.10;74.15
52032;BME280;38044;45.148;39.604;2023-06-14T04:59:39;100397.84;;;24.78;71.79
52032;BME280;38044;45.148;39.604;2023-06-14T05:02:05;100394.72;;;25.23;69.44
52032;BME280;38044;45.148;39.604;2023-06-14T05:04:32;100398.59;;;25.47;68.54
52032;BME280;38044;45.148;39.604;2023-06-14T05:06:58;100400.97;;;25.52;68.19
52032;BME280;38044;45.148;39.604;2023-06-14T05:09:24;100398.44;;;26.04;67.99
52032;BME280;38044;45.148;39.604;2023-06-14T05:11:50;100398.09;;;26.76;65.43
52032;BME280;38044;45.148;39.604;2023-06-14T05:14:16;100408.66;;;26.84;63.29
52032;BME280;38044;45.148;39.604;2023-06-14T05:16:43;100407.50;;;26.78;63.49
52032;BME280;38044;45.148;39.604;2023-06-14T05:19:09;100412.22;;;26.78;64.12
52032;BME280;38044;45.148;39.604;2023-06-14T05:21:36;100410.59;;;26.87;64.10
52032;BME280;38044;45.148;39.604;2023-06-14T05:24:02;100417.44;;;26.68;63.60
52032;BME280;38044;45.148;39.604;2023-06-14T05:26:28;100417.00;;;26.73;64.19
52032;BME280;38044;45.148;39.604;2023-06-14T05:28:58;100418.88;;;26.87;64.54
52032;BME280;38044;45.148;39.604;2023-06-14T05:31:26;100428.13;;;27.18;63.03
52032;BME280;38044;45.148;39.604;2023-06-14T05:33:53;100430.97;;;27.01;62.99
52032;BME280;38044;45.148;39.604;2023-06-14T05:36:22;100422.53;;;27.63;62.52
52032;BME280;38044;45.148;39.604;2023-06-14T05:38:48;100423.19;;;28.43;60.51
52032;BME280;38044;45.148;39.604;2023-06-14T05:41:14;100423.94;;;28.47;58.50
52032;BME280;38044;45.148;39.604;2023-06-14T05:43:40;100433.50;;;28.93;58.38
52032;BME280;38044;45.148;39.604;2023-06-14T05:46:06;100437.88;;;29.61;55.41
52032;BME280;38044;45.148;39.604;2023-06-14T05:48:32;100437.41;;;30.06;53.79
52032;BME280;38044;45.148;39.604;2023-06-14T05:50:58;100435.94;;;30.58;52.72
52032;BME280;38044;45.148;39.604;2023-06-14T05:53:25;100434.78;;;31.08;52.33
52032;BME280;38044;45.148;39.604;2023-06-14T05:55:51;100442.16;;;31.60;50.07
52032;BME280;38044;45.148;39.604;2023-06-14T05:58:21;100427.84;;;31.91;49.68
52032;BME280;38044;45.148;39.604;2023-06-14T06:00:47;100441.28;;;32.47;49.96
52032;BME280;38044;45.148;39.604;2023-06-14T06:03:13;100440.38;;;32.76;48.71
52032;BME280;38044;45.148;39.604;2023-06-14T06:05:39;100450.31;;;32.77;47.62
52032;BME280;38044;45.148;39.604;2023-06-14T06:08:05;100443.16;;;32.76;48.58
52032;BME280;38044;45.148;39.604;2023-06-14T06:10:31;100443.38;;;32.94;47.38
52032;BME280;38044;45.148;39.604;2023-06-14T06:12:57;100446.09;;;33.68;46.02
52032;BME280;38044;45.148;39.604;2023-06-14T06:15:23;100443.00;;;34.09;46.27
52032;BME280;38044;45.148;39.604;2023-06-14T06:17:49;100434.25;;;34.29;44.13
52032;BME280;38044;45.148;39.604;2023-06-14T06:20:16;100446.75;;;34.16;45.40
52032;BME280;38044;45.148;39.604;2023-06-14T06:22:42;100437.94;;;33.95;45.59
52032;BME280;38044;45.148;39.604;2023-06-14T06:25:09;100434.44;;;33.60;46.77
52032;BME280;38044;45.148;39.604;2023-06-14T06:27:35;100444.22;;;33.30;46.11
52032;BME280;38044;45.148;39.604;2023-06-14T06:30:03;100449.53;;;32.64;48.56
52032;BME280;38044;45.148;39.604;2023-06-14T06:32:29;100438.41;;;32.64;47.97
52032;BME280;38044;45.148;39.604;2023-06-14T06:34:55;100432.38;;;33.04;47.30
52032;BME280;38044;45.148;39.604;2023-06-14T06:37:21;100441.69;;;33.10;47.85
52032;BME280;38044;45.148;39.604;2023-06-14T06:39:47;100442.47;;;33.23;46.68
52032;BME280;38044;45.148;39.604;2023-06-14T06:42:13;100445.06;;;33.74;45.46
52032;BME280;38044;45.148;39.604;2023-06-14T06:44:39;100439.50;;;34.27;45.98
52032;BME280;38044;45.148;39.604;2023-06-14T06:47:05;100432.22;;;33.55;46.37
52032;BME280;38044;45.148;39.604;2023-06-14T06:49:30;100447.25;;;33.57;48.20
52032;BME280;38044;45.148;39.604;2023-06-14T06:52:03;100443.47;;;33.51;46.30
52032;BME280;38044;45.148;39.604;2023-06-14T06:54:30;100450.50;;;32.95;47.95
52032;BME280;38044;45.148;39.604;2023-06-14T06:56:56;100453.19;;;32.48;48.83
52032;BME280;38044;45.148;39.604;2023-06-14T06:59:22;100450.81;;;33.10;48.28
52032;BME280;38044;45.148;39.604;2023-06-14T07:01:49;100437.81;;;33.55;48.05
52032;BME280;38044;45.148;39.604;2023-06-14T07:04:15;100447.94;;;34.05;46.79
52032;BME280;38044;45.148;39.604;2023-06-14T07:06:42;100445.47;;;33.16;47.41
52032;BME280;38044;45.148;39.604;2023-06-14T07:09:08;100447.28;;;33.10;47.62
52032;BME280;38044;45.148;39.604;2023-06-14T07:11:38;100449.38;;;32.93;48.00
52032;BME280;38044;45.148;39.604;2023-06-14T07:14:05;100446.16;;;32.94;49.33
52032;BME280;38044;45.148;39.604;2023-06-14T07:16:31;100453.31;;;32.70;49.96
52032;BME280;38044;45.148;39.604;2023-06-14T07:18:57;100450.03;;;33.23;50.13
52032;BME280;38044;45.148;39.604;2023-06-14T07:21:23;100452.84;;;32.84;49.07
52032;BME280;38044;45.148;39.604;2023-06-14T07:23:52;100441.19;;;32.77;47.69
52032;BME280;38044;45.148;39.604;2023-06-14T07:26:18;100446.28;;;33.38;48.63
52032;BME280;38044;45.148;39.604;2023-06-14T07:28:44;100438.31;;;33.84;47.17
52032;BME280;38044;45.148;39.604;2023-06-14T07:31:17;100439.59;;;34.77;45.38
52032;BME280;38044;45.148;39.604;2023-06-14T07:33:45;100435.00;;;35.11;43.62
52032;BME280;38044;45.148;39.604;2023-06-14T07:36:11;100430.84;;;35.71;43.09
52032;BME280;38044;45.148;39.604;2023-06-14T07:38:37;100441.38;;;36.03;42.74
52032;BME280;38044;45.148;39.604;2023-06-14T07:41:02;100446.97;;;36.13;42.67
52032;BME280;38044;45.148;39.604;2023-06-14T07:43:28;100446.75;;;36.35;40.71
52032;BME280;38044;45.148;39.604;2023-06-14T07:45:54;100452.78;;;35.63;42.46
52032;BME280;38044;45.148;39.604;2023-06-14T07:48:20;100442.19;;;35.67;42.60
52032;BME280;38044;45.148;39.604;2023-06-14T07:50:46;100451.34;;;35.77;42.31
52032;BME280;38044;45.148;39.604;2023-06-14T07:53:11;100437.69;;;35.79;42.78
52032;BME280;38044;45.148;39.604;2023-06-14T07:55:37;100435.81;;;35.76;42.93
52032;BME280;38044;45.148;39.604;2023-06-14T07:58:04;100439.25;;;35.43;43.26
52032;BME280;38044;45.148;39.604;2023-06-14T08:00:30;100420.44;;;35.16;44.01
52032;BME280;38044;45.148;39.604;2023-06-14T08:02:56;100435.06;;;34.70;44.02
52032;BME280;38044;45.148;39.604;2023-06-14T08:05:24;100436.63;;;33.87;45.67
52032;BME280;38044;45.148;39.604;2023-06-14T08:07:51;100437.06;;;32.56;49.02
52032;BME280;38044;45.148;39.604;2023-06-14T08:10:18;100424.22;;;31.78;50.41
52032;BME280;38044;45.148;39.604;2023-06-14T08:12:44;100423.06;;;32.04;50.38
52032;BME280;38044;45.148;39.604;2023-06-14T08:15:10;100422.53;;;32.09;50.44
52032;BME280;38044;45.148;39.604;2023-06-14T08:17:36;100424.81;;;32.53;49.25
52032;BME280;38044;45.148;39.604;2023-06-14T08:20:02;100432.03;;;32.76;47.83
52032;BME280;38044;45.148;39.604;2023-06-14T08:22:30;100427.63;;;33.26;47.23
52032;BME280;38044;45.148;39.604;2023-06-14T08:24:58;100428.44;;;33.49;46.29
52032;BME280;38044;45.148;39.604;2023-06-14T08:27:23;100428.34;;;33.05;45.97
52032;BME280;38044;45.148;39.604;2023-06-14T08:29:49;100427.06;;;32.71;47.70
52032;BME280;38044;45.148;39.604;2023-06-14T08:32:15;100419.38;;;32.49;48.95
52032;BME280;38044;45.148;39.604;2023-06-14T08:34:41;100429.50;;;32.69;48.76
52032;BME280;38044;45.148;39.604;2023-06-14T08:37:07;100428.16;;;32.61;47.70
52032;BME280;38044;45.148;39.604;2023-06-14T08:39:33;100431.50;;;32.56;47.31
52032;BME280;38044;45.148;39.604;2023-06-14T08:42:01;100424.13;;;32.36;47.00
52032;BME280;38044;45.148;39.604;2023-06-14T08:44:29;100427.53;;;32.02;49.08
52032;BME280;38044;45.148;39.604;2023-06-14T08:46:56;100440.38;;;31.54;50.00
52032;BME280;38044;45.148;39.604;2023-06-14T08:49:25;100432.56;;;31.49;51.04
52032;BME280;38044;45.148;39.604;2023-06-14T08:52:00;100436.47;;;31.35;50.76
52032;BME280;38044;45.148;39.604;2023-06-14T08:54:29;100443.03;;;31.57;49.19
52032;BME280;38044;45.148;39.604;2023-06-14T08:56:59;100440.63;;;30.78;50.11
52032;BME280;38044;45.148;39.604;2023-06-14T08:59:28;100440.59;;;30.61;51.08
52032;BME280;38044;45.148;39.604;2023-06-14T09:01:54;100437.94;;;30.74;51.33
52032;BME280;38044;45.148;39.604;2023-06-14T09:04:23;100437.84;;;30.61;51.23
52032;BME280;38044;45.148;39.604;2023-06-14T09:06:57;100438.75;;;30.38;50.96
52032;BME280;38044;45.148;39.604;2023-06-14T09:09:24;100434.28;;;30.24;51.45
52032;BME280;38044;45.148;39.604;2023-06-14T09:11:51;100435.72;;;29.93;53.08
52032;BME280;38044;45.148;39.604;2023-06-14T09:14:23;100427.06;;;30.30;53.86
52032;BME280;38044;45.148;39.604;2023-06-14T09:16:53;100418.81;;;30.96;51.76
52032;BME280;38044;45.148;39.604;2023-06-14T09:19:25;100421.16;;;31.14;51.25
52032;BME280;38044;45.148;39.604;2023-06-14T09:21:52;100419.88;;;31.02;50.91
52032;BME280;38044;45.148;39.604;2023-06-14T09:24:19;100403.25;;;30.49;52.43
52032;BME280;38044;45.148;39.604;2023-06-14T09:26:48;100401.09;;;30.21;54.23
52032;BME280;38044;45.148;39.604;2023-06-14T09:29:16;100389.94;;;30.24;52.59
52032;BME280;38044;45.148;39.604;2023-06-14T09:31:42;100391.50;;;31.56;52.45
52032;BME280;38044;45.148;39.604;2023-06-14T09:34:09;100389.38;;;33.05;49.17
52032;BME280;38044;45.148;39.604;2023-06-14T09:36:35;100389.97;;;34.31;46.71
52032;BME280;38044;45.148;39.604;2023-06-14T09:39:03;100396.56;;;35.15;45.09
52032;BME280;38044;45.148;39.604;2023-06-14T09:41:33;100394.97;;;35.14;43.54
52032;BME280;38044;45.148;39.604;2023-06-14T09:44:00;100394.34;;;34.91;43.14
52032;BME280;38044;45.148;39.604;2023-06-14T09:46:28;100396.91;;;34.67;44.97
52032;BME280;38044;45.148;39.604;2023-06-14T09:49:00;100386.97;;;33.95;44.43
52032;BME280;38044;45.148;39.604;2023-06-14T09:51:28;100381.03;;;33.61;45.58
52032;BME280;38044;45.148;39.604;2023-06-14T09:54:02;100380.41;;;33.23;46.01
52032;BME280;38044;45.148;39.604;2023-06-14T09:56:41;100374.31;;;32.55;47.06
52032;BME280;38044;45.148;39.604;2023-06-14T09:59:12;100377.59;;;31.98;48.41
52032;BME280;38044;45.148;39.604;2023-06-14T10:01:42;100381.59;;;31.55;49.65
52032;BME280;38044;45.148;39.604;2023-06-14T10:04:10;100386.78;;;31.53;49.45
52032;BME280;38044;45.148;39.604;2023-06-14T10:06:39;100380.03;;;31.54;48.98
52032;BME280;38044;45.148;39.604;2023-06-14T10:09:08;100389.31;;;31.48;47.98
52032;BME280;38044;45.148;39.604;2023-06-14T10:11:36;100374.69;;;31.31;49.65
52032;BME280;38044;45.148;39.604;2023-06-14T10:14:04;100383.69;;;31.51;49.55
52032;BME280;38044;45.148;39.604;2023-06-14T10:16:34;100391.63;;;31.66;50.10
52032;BME280;38044;45.148;39.604;2023-06-14T10:19:21;100391.25;;;31.93;49.74
52032;BME280;38044;45.148;39.604;2023-06-14T10:22:22;100386.41;;;32.22;47.24
52032;BME280;38044;45.148;39.604;2023-06-14T10:24:50;100374.50;;;32.22;47.43
52032;BME280;38044;45.148;39.604;2023-06-14T10:27:16;100383.97;;;32.37;48.19
52032;BME280;38044;45.148;39.604;2023-06-14T10:32:27;100371.16;;;32.78;48.13
52032;BME280;38044;45.148;39.604;2023-06-14T10:35:01;100385.34;;;32.45;46.75
52032;BME280;38044;45.148;39.604;2023-06-14T10:37:29;100377.41;;;31.76;47.30
52032;BME280;38044;45.148;39.604;2023-06-14T10:39:56;100382.50;;;31.36;50.11
52032;BME280;38044;45.148;39.604;2023-06-14T10:42:23;100372.97;;;31.37;50.25
52032;BME280;38044;45.148;39.604;2023-06-14T10:44:55;100377.25;;;31.54;50.35
52032;BME280;38044;45.148;39.604;2023-06-14T10:47:31;100364.78;;;31.46;49.35
52032;BME280;38044;45.148;39.604;2023-06-14T10:50:04;100371.41;;;31.65;49.26
52032;BME280;38044;45.148;39.604;2023-06-14T10:52:33;100372.66;;;31.77;48.53
52032;BME280;38044;45.148;39.604;2023-06-14T10:55:10;100367.03;;;31.51;47.85
52032;BME280;38044;45.148;39.604;2023-06-14T10:57:56;100367.41;;;31.37;47.50
52032;BME280;38044;45.148;39.604;2023-06-14T11:00:24;100355.84;;;30.93;51.09
52032;BME280;38044;45.148;39.604;2023-06-14T11:05:55;100369.38;;;30.74;49.32
52032;BME280;38044;45.148;39.604;2023-06-14T11:11:00;100368.75;;;30.67;50.84
52032;BME280;38044;45.148;39.604;2023-06-14T11:13:26;100375.28;;;30.93;50.38
52032;BME280;38044;45.148;39.604;2023-06-14T11:15:52;100361.03;;;30.74;48.87
52032;BME280;38044;45.148;39.604;2023-06-14T11:18:21;100375.09;;;30.84;50.11
52032;BME280;38044;45.148;39.604;2023-06-14T11:20:50;100376.25;;;30.86;49.72
52032;BME280;38044;45.148;39.604;2023-06-14T11:23:16;100380.50;;;30.91;50.40
52032;BME280;38044;45.148;39.604;2023-06-14T11:25:42;100375.78;;;31.04;49.33
52032;BME280;38044;45.148;39.604;2023-06-14T11:28:08;100378.66;;;31.01;50.15
52032;BME280;38044;45.148;39.604;2023-06-14T11:30:34;100383.44;;;31.00;49.47
52032;BME280;38044;45.148;39.604;2023-06-14T11:33:00;100376.22;;;31.03;50.27
52032;BME280;38044;45.148;39.604;2023-06-14T11:35:26;100380.91;;;31.06;49.65
52032;BME280;38044;45.148;39.604;2023-06-14T11:37:53;100363.47;;;31.05;50.27
52032;BME280;38044;45.148;39.604;2023-06-14T11:40:24;100364.06;;;31.13;47.76
52032;BME280;38044;45.148;39.604;2023-06-14T11:42:50;100363.28;;;31.12;47.27
52032;BME280;38044;45.148;39.604;2023-06-14T11:45:16;100373.72;;;31.08;48.03
52032;BME280;38044;45.148;39.604;2023-06-14T11:47:41;100371.25;;;31.10;48.78
52032;BME280;38044;45.148;39.604;2023-06-14T11:50:09;100379.84;;;31.16;47.73
52032;BME280;38044;45.148;39.604;2023-06-14T11:52:36;100374.34;;;30.83;49.85
52032;BME280;38044;45.148;39.604;2023-06-14T11:55:03;100367.88;;;30.70;49.12
52032;BME280;38044;45.148;39.604;2023-06-14T11:57:35;100365.34;;;30.79;47.87
52032;BME280;38044;45.148;39.604;2023-06-14T12:00:06;100358.78;;;30.69;48.90
52032;BME280;38044;45.148;39.604;2023-06-14T12:02:40;100369.28;;;30.62;50.29
52032;BME280;38044;45.148;39.604;2023-06-14T12:05:07;100364.59;;;30.59;50.67
52032;BME280;38044;45.148;39.604;2023-06-14T12:07:39;100345.78;;;30.50;51.79
52032;BME280;38044;45.148;39.604;2023-06-14T12:10:09;100363.38;;;30.43;50.76
52032;BME280;38044;45.148;39.604;2023-06-14T12:12:37;100344.75;;;30.44;51.49
52032;BME280;38044;45.148;39.604;2023-06-14T12:15:05;100354.44;;;30.36;52.80
52032;BME280;38044;45.148;39.604;2023-06-14T12:17:33;100356.53;;;30.32;53.48
52032;BME280;38044;45.148;39.604;2023-06-14T12:20:05;100353.25;;;30.37;51.57
52032;BME280;38044;45.148;39.604;2023-06-14T12:22:34;100350.03;;;30.22;52.94
52032;BME280;38044;45.148;39.604;2023-06-14T12:25:00;100354.75;;;30.21;53.61
52032;BME280;38044;45.148;39.604;2023-06-14T12:27:26;100351.59;;;30.03;52.94
52032;BME280;38044;45.148;39.604;2023-06-14T12:30:01;100345.59;;;29.88;53.55
52032;BME280;38044;45.148;39.604;2023-06-14T12:32:28;100351.91;;;29.89;53.12
52032;BME280;38044;45.148;39.604;2023-06-14T12:34:55;100352.75;;;29.85;53.42
52032;BME280;38044;45.148;39.604;2023-06-14T12:37:21;100342.19;;;29.80;55.80
52032;BME280;38044;45.148;39.604;2023-06-14T12:39:47;100351.19;;;29.84;53.79
52032;BME280;38044;45.148;39.604;2023-06-14T12:42:13;100345.94;;;29.70;54.73
52032;BME280;38044;45.148;39.604;2023-06-14T12:44:40;100346.78;;;29.87;54.88
52032;BME280;38044;45.148;39.604;2023-06-14T12:47:09;100335.28;;;29.89;52.54
52032;BME280;38044;45.148;39.604;2023-06-14T12:49:35;100351.25;;;29.81;52.75
52032;BME280;38044;45.148;39.604;2023-06-14T12:52:01;100352.75;;;29.85;54.28